This is the latest recevied weather packets stored in our database for station/object E22ZMG-4. If no packets are shown the sender has not sent any weather packets the latest 1 day(s).
| Time | Temp. | Humidity | Pressure | Rain* | Wind** | Luminosity | Snow |
|---|---|---|---|---|---|---|---|
| 1778059031 | 26.67° C | 40% | 971 hPa | - | - | 0 W/m² | - |
| 1778058407 | 26.67° C | 39% | 971 hPa | - | - | 0 W/m² | - |
| 1778057782 | 26.67° C | 41% | 971 hPa | - | - | 0 W/m² | - |
| 1778057157 | 27.22° C | 44% | 972 hPa | - | - | 0 W/m² | - |
| 1778056533 | 27.22° C | 50% | 972 hPa | - | - | 0 W/m² | - |
| 1778055284 | 27.22° C | 44% | 972 hPa | - | - | 0 W/m² | - |
| 1778054035 | 27.22° C | 48% | 972 hPa | - | - | 0 W/m² | - |
| 1778052785 | 27.22° C | 46% | 972 hPa | - | - | 0 W/m² | - |
| 1778052161 | 27.22° C | 48% | 972 hPa | - | - | 0 W/m² | - |
| 1778051536 | 26.67° C | 42% | 973 hPa | - | - | 0 W/m² | - |
| 1778050912 | 26.67° C | 41% | 973 hPa | - | - | 0 W/m² | - |
| 1778050288 | 26.67° C | 42% | 973 hPa | - | - | 0 W/m² | - |
| 1778048415 | 26.11° C | 39% | 974 hPa | - | - | 0 W/m² | - |
| 1778047791 | 26.67° C | 39% | 974 hPa | - | - | 0 W/m² | - |
| 1778047443 | 26.67° C | 39% | 974 hPa | - | - | 0 W/m² | - |
| 1778046819 | 26.11° C | 39% | 975 hPa | - | - | 0 W/m² | - |
| 1778046195 | 26.67° C | 39% | 975 hPa | - | - | 0 W/m² | - |
| 1778044946 | 26.67° C | 42% | 975 hPa | - | - | 0 W/m² | - |
| 1778044322 | 26.11° C | 39% | 975 hPa | - | - | 0 W/m² | - |
| 1778043073 | 27.22° C | 42% | 976 hPa | - | - | 0 W/m² | - |
| 1778042449 | 26.67° C | 40% | 976 hPa | - | - | 0 W/m² | - |
| 1778041824 | 27.22° C | 45% | 976 hPa | - | - | 0 W/m² | - |
| 1778041200 | 26.67° C | 39% | 976 hPa | - | - | 0 W/m² | - |
| 1778039950 | 27.78° C | 44% | 976 hPa | - | - | 0 W/m² | - |
| 1778039326 | 27.22° C | 38% | 976 hPa | - | - | 0 W/m² | - |
* Rain since midnight (hover to see other rain measurements)
** Current wind speed in m/s (hover to see current wind gust speed)